Search for airport 
image banner adimage banner adimage banner ad
image banner ad

KTVL - Lake Tahoe

Located in South Lake Tahoe, United States

ICAO - TVL, IATA - TVL

Data provided by Airmate  

General information

Coordinates: N38°53'38" W119°59'43"
Elevation is 6268 feet MSL.
Magnetic variation is 16° East
View others Airports in California

Operational data

Special qualification required
Current time UTC:
Current local time:
Weather
METAR: KTVL 291553Z AUTO 00000KT 10SM CLR 20/07 A3031 RMK AO2 SLP195 T02000067
TAF: KTVL 291120Z 2912/3012 18003KT P6SM FEW150 FM292000 04006KT P6SM BKN080 PROB30 2921/3002 6SM TSRA BKN040CB FM300200 19003KT P6SM SCT100 BKN180
View NOTAMs / SUP AIP / TFR affecting this airport [VIEW]
Communications frequencies: [VIEW]

Runways:

RWY identifierQFULength (ft)Width (ft)SurfaceLDA (ft)
18193°8541100ASPH7017
3613°8541100ASPH5708

Airport contact information

Address: South Lake Tahoe United States

Other aviation service providers

Flight schools

Pacific North Helicopters

Pacific North Helicopters
sindre@pnh-us.com+1(530)544-2211

Satellite view of KTVL